Time;durP1;ratioP1;P1;durP2;ratioP2;P2;SDS_P1;SDS_P2;PMS_P1;PMS_P2;Temp;Humidity;BMP_temperature;BMP_pressure;BME280_temperature;BME280_humidity;BME280_pressure;Samples;Min_cycle;Max_cycle;Signal;HPM_P1;HPM_P2
2022/02/12 00:01:29;;;;;;;19.80;10.43;;;2.90;77.10;;;;;;5110290;28;20048;-84
2022/02/12 00:03:56;;;;;;;21.38;10.45;;;2.90;77.10;;;;;;5109964;28;20421;-84
2022/02/12 00:06:24;;;;;;;24.05;10.48;;;2.90;77.20;;;;;;5092291;28;20047;-84
2022/02/12 00:08:50;;;;;;;17.48;9.93;;;2.90;77.20;;;;;;5092417;28;20044;-83
2022/02/12 00:11:18;;;;;;;16.45;9.48;;;2.90;77.20;;;;;;5111522;28;20048;-85
2022/02/12 00:13:45;;;;;;;20.35;9.88;;;2.90;77.20;;;;;;5111509;28;20047;-85
2022/02/12 00:16:12;;;;;;;17.33;10.43;;;2.80;77.20;;;;;;5092261;28;20497;-85
2022/02/12 00:18:39;;;;;;;20.48;10.23;;;2.80;77.20;;;;;;5109944;28;20044;-85
2022/02/12 00:21:06;;;;;;;17.75;9.18;;;2.80;77.20;;;;;;5092345;28;20050;-84
2022/02/12 00:23:33;;;;;;;20.55;10.05;;;2.80;77.30;;;;;;5110286;28;20101;-85
2022/02/12 00:25:59;;;;;;;17.40;9.75;;;2.80;77.30;;;;;;5112434;28;20178;-84
2022/02/12 00:28:27;;;;;;;19.27;10.57;;;2.80;77.30;;;;;;5110120;28;20044;-84
2022/02/12 00:30:54;;;;;;;19.60;10.60;;;2.80;77.30;;;;;;5110151;28;20044;-84
2022/02/12 00:33:21;;;;;;;20.35;10.40;;;2.70;77.30;;;;;;5091877;28;20055;-85
2022/02/12 00:35:48;;;;;;;21.27;11.68;;;2.70;77.40;;;;;;5110247;28;20043;-85
2022/02/12 00:38:15;;;;;;;19.88;10.63;;;2.70;77.40;;;;;;5111337;28;20051;-84
2022/02/12 00:40:42;;;;;;;21.83;11.93;;;2.70;77.40;;;;;;5110922;28;20044;-84
2022/02/12 00:43:09;;;;;;;19.35;10.13;;;2.70;77.40;;;;;;5109972;28;20043;-85
2022/02/12 00:45:36;;;;;;;16.50;9.93;;;2.70;77.40;;;;;;5110078;28;20047;-84
2022/02/12 00:48:05;;;;;;;18.13;9.43;;;2.70;77.40;;;;;;5109611;28;20097;-84
2022/02/12 00:50:32;;;;;;;16.77;9.43;;;2.70;77.50;;;;;;5109840;28;20112;-85
2022/02/12 00:52:59;;;;;;;18.10;9.20;;;2.60;77.50;;;;;;5111073;28;20047;-85
2022/02/12 00:55:26;;;;;;;17.70;9.20;;;2.60;77.50;;;;;;5109787;28;20100;-85
2022/02/12 00:57:53;;;;;;;17.60;9.93;;;2.60;77.50;;;;;;5109969;28;20050;-84
2022/02/12 01:00:21;;;;;;;16.73;9.20;;;2.60;77.50;;;;;;5109778;28;20048;-84
2022/02/12 01:02:48;;;;;;;17.15;10.02;;;2.60;77.50;;;;;;5109634;28;20052;-85
2022/02/12 01:05:15;;;;;;;17.40;9.75;;;2.60;77.50;;;;;;5115030;28;20043;-84
2022/02/12 01:07:42;;;;;;;17.17;9.95;;;2.60;77.50;;;;;;5125170;27;20433;-85
2022/02/12 01:10:11;;;;;;;19.55;9.93;;;2.60;77.50;;;;;;5113293;28;20126;-85
2022/02/12 01:12:38;;;;;;;17.35;9.05;;;2.60;77.60;;;;;;5113506;28;20044;-85
2022/02/12 01:15:06;;;;;;;15.13;8.98;;;2.60;77.60;;;;;;5113346;28;20035;-85
2022/02/12 01:17:35;;;;;;;18.10;9.57;;;2.50;77.70;;;;;;5112972;28;20059;-85
2022/02/12 01:20:02;;;;;;;14.75;9.35;;;2.50;77.70;;;;;;5097313;28;20055;-85
2022/02/12 01:22:29;;;;;;;19.63;10.20;;;2.50;77.80;;;;;;5113205;28;20047;-85
2022/02/12 01:24:56;;;;;;;15.43;8.98;;;2.50;77.80;;;;;;5113174;28;20074;-85
2022/02/12 01:27:23;;;;;;;17.80;9.25;;;2.50;77.90;;;;;;5112864;28;20509;-85
2022/02/12 01:29:50;;;;;;;15.27;9.35;;;2.50;77.90;;;;;;5093697;28;20047;-85
2022/02/12 01:32:18;;;;;;;14.52;9.20;;;2.50;78.00;;;;;;5114236;28;20512;-85
2022/02/12 01:34:45;;;;;;;16.65;9.35;;;2.50;78.00;;;;;;5114222;28;20047;-84
2022/02/12 01:37:12;;;;;;;18.13;9.75;;;2.50;78.10;;;;;;5112753;28;20048;-85
2022/02/12 01:39:40;;;;;;;20.77;9.57;;;2.50;78.20;;;;;;5112836;28;20126;-84
2022/02/12 01:42:07;;;;;;;20.45;9.80;;;2.50;78.20;;;;;;5112767;28;20047;-85
2022/02/12 01:44:37;;;;;;;15.63;9.70;;;2.50;78.20;;;;;;5112443;28;20052;-85
2022/02/12 01:47:06;;;;;;;18.15;9.57;;;2.50;78.30;;;;;;5114850;28;20040;-85
2022/02/12 01:49:33;;;;;;;14.82;9.13;;;2.50;78.30;;;;;;5112441;28;20052;-85
2022/02/12 01:52:03;;;;;;;15.82;9.63;;;2.50;78.40;;;;;;5112579;28;20525;-85
2022/02/12 01:54:30;;;;;;;18.98;10.25;;;2.50;78.40;;;;;;5112525;28;20055;-85
2022/02/12 01:57:01;;;;;;;17.75;9.63;;;2.50;78.50;;;;;;5112515;28;20044;-85
2022/02/12 01:59:28;;;;;;;13.52;9.32;;;2.50;78.50;;;;;;5112322;28;20317;-85
2022/02/12 02:01:56;;;;;;;18.20;9.57;;;2.50;78.50;;;;;;5114524;28;20051;-85
2022/02/12 02:04:24;;;;;;;14.80;9.30;;;2.50;78.50;;;;;;5112306;28;20055;-85
2022/02/12 02:06:51;;;;;;;16.58;9.50;;;2.50;78.50;;;;;;5094218;28;20043;-85
2022/02/12 02:09:20;;;;;;;16.23;9.13;;;2.50;78.50;;;;;;5092871;28;20051;-85
2022/02/12 02:11:47;;;;;;;15.30;9.48;;;2.50;78.50;;;;;;5112369;28;20035;-85
2022/02/12 02:14:16;;;;;;;15.05;8.93;;;2.50;78.50;;;;;;5112991;28;20055;-85
2022/02/12 02:16:44;;;;;;;15.60;9.02;;;2.50;78.50;;;;;;5094791;28;20439;-86
2022/02/12 02:19:12;;;;;;;18.38;8.80;;;2.50;78.50;;;;;;5111970;28;20064;-86
2022/02/12 02:21:40;;;;;;;14.10;9.20;;;2.50;78.50;;;;;;5112055;28;20062;-86
2022/02/12 02:24:07;;;;;;;17.48;9.38;;;2.50;78.50;;;;;;5094035;28;20039;-85
2022/02/12 02:26:35;;;;;;;14.68;9.32;;;2.50;78.50;;;;;;5111926;28;20063;-86
2022/02/12 02:29:02;;;;;;;12.90;8.35;;;2.50;78.50;;;;;;5113616;28;20052;-86
2022/02/12 02:31:29;;;;;;;20.70;8.52;;;2.40;78.50;;;;;;5111770;28;20052;-86
2022/02/12 02:33:56;;;;;;;14.63;8.88;;;2.40;78.50;;;;;;5111821;28;20054;-86
2022/02/12 02:36:23;;;;;;;15.13;8.82;;;2.50;78.50;;;;;;5111577;28;20047;-85
2022/02/12 02:38:50;;;;;;;14.63;9.00;;;2.40;78.50;;;;;;5111720;28;20051;-85
2022/02/12 02:41:17;;;;;;;18.83;9.75;;;2.50;78.50;;;;;;5113096;28;20048;-86
2022/02/12 02:43:44;;;;;;;17.10;9.25;;;2.40;78.50;;;;;;5109962;28;20047;-86
2022/02/12 02:46:15;;;;;;;13.30;9.10;;;2.40;78.50;;;;;;5111396;28;20051;-85
2022/02/12 02:48:42;;;;;;;13.68;8.80;;;2.40;78.50;;;;;;5109876;28;20060;-86
2022/02/12 02:56:41;;;;;;;15.18;8.25;;;2.40;78.50;;;;;;5095736;28;20044;-86
2022/02/12 02:59:08;;;;;;;12.40;8.05;;;2.40;78.60;;;;;;5090858;28;20051;-86
2022/02/12 03:01:35;;;;;;;13.18;8.60;;;2.40;78.60;;;;;;5093241;28;20513;-86
2022/02/12 03:04:04;;;;;;;15.55;8.55;;;2.40;78.60;;;;;;5111221;28;20416;-86
2022/02/12 03:06:31;;;;;;;16.77;8.73;;;2.30;78.60;;;;;;5111054;28;20055;-85
2022/02/12 03:08:59;;;;;;;13.15;8.20;;;2.30;78.60;;;;;;5111170;28;20397;-85
2022/02/12 03:11:26;;;;;;;13.88;8.13;;;2.30;78.60;;;;;;5110975;28;20048;-86
2022/02/12 03:13:57;;;;;;;16.48;8.88;;;2.30;78.60;;;;;;5111219;28;20497;-86
2022/02/12 03:16:24;;;;;;;19.73;8.80;;;2.30;78.60;;;;;;5110954;28;20051;-86
2022/02/12 03:18:51;;;;;;;16.35;8.65;;;2.30;78.70;;;;;;5110898;28;20043;-85
2022/02/12 03:21:18;;;;;;;15.98;8.77;;;2.30;78.60;;;;;;5111023;28;20040;-86
2022/02/12 03:23:45;;;;;;;13.35;8.45;;;2.30;78.70;;;;;;5110995;28;20048;-85
2022/02/12 03:26:13;;;;;;;15.20;8.40;;;2.30;78.70;;;;;;5111916;28;20100;-86
2022/02/12 03:28:41;;;;;;;13.48;7.75;;;2.30;78.70;;;;;;5110037;28;20528;-87
2022/02/12 03:31:08;;;;;;;10.93;7.53;;;2.30;78.70;;;;;;5092718;28;20047;-85
2022/02/12 03:33:36;;;;;;;13.02;7.53;;;2.30;78.70;;;;;;5110793;28;20074;-87
2022/02/12 03:36:04;;;;;;;13.35;7.90;;;2.20;78.70;;;;;;5110493;28;20059;-86
2022/02/12 03:38:36;;;;;;;13.57;7.68;;;2.30;78.70;;;;;;5092684;28;20052;-86
2022/02/12 03:41:05;;;;;;;12.75;7.65;;;2.20;78.70;;;;;;5112583;28;20055;-85
2022/02/12 03:43:35;;;;;;;10.98;7.53;;;2.20;78.70;;;;;;5110649;28;20108;-86
2022/02/12 03:46:04;;;;;;;13.30;7.57;;;2.20;78.70;;;;;;5110637;28;20062;-85
2022/02/12 03:48:31;;;;;;;12.90;7.72;;;2.20;78.70;;;;;;5110276;28;20047;-86
2022/02/12 03:50:58;;;;;;;14.60;7.68;;;2.20;78.70;;;;;;5110763;28;20039;-86
2022/02/12 03:53:25;;;;;;;13.60;7.30;;;2.20;78.70;;;;;;5111126;28;20063;-86
2022/02/12 03:55:52;;;;;;;13.32;7.38;;;2.20;78.70;;;;;;5110123;28;20524;-85
2022/02/12 03:58:19;;;;;;;13.35;7.50;;;2.20;78.70;;;;;;5110353;28;20398;-86
2022/02/12 04:00:48;;;;;;;16.02;7.78;;;2.20;78.80;;;;;;5110336;28;20493;-86
2022/02/12 04:03:16;;;;;;;12.00;7.55;;;2.20;78.70;;;;;;5110290;28;20499;-86
2022/02/12 04:05:46;;;;;;;14.45;7.55;;;2.20;78.80;;;;;;5109243;28;20043;-86
2022/02/12 04:08:18;;;;;;;12.07;7.40;;;2.10;78.70;;;;;;5111988;28;20051;-86
2022/02/12 04:10:46;;;;;;;13.45;6.88;;;2.10;78.80;;;;;;5093124;28;20062;-85
2022/02/12 04:13:13;;;;;;;11.38;7.00;;;2.10;78.80;;;;;;5110341;28;20051;-86
2022/02/12 04:15:40;;;;;;;14.88;7.85;;;2.10;78.80;;;;;;5110344;28;20039;-86
2022/02/12 04:18:12;;;;;;;13.00;7.13;;;2.10;78.80;;;;;;5110301;28;20044;-86
2022/02/12 04:20:39;;;;;;;10.38;7.03;;;2.00;78.80;;;;;;5110365;28;20232;-86
2022/02/12 04:23:08;;;;;;;13.63;7.00;;;2.10;78.80;;;;;;5112420;28;20054;-87
2022/02/12 04:25:35;;;;;;;15.98;7.65;;;2.00;78.80;;;;;;5109814;28;20048;-87
2022/02/12 04:28:09;;;;;;;12.77;7.15;;;2.00;78.80;;;;;;5109867;28;20068;-88
2022/02/12 04:30:39;;;;;;;10.70;6.22;;;2.00;78.80;;;;;;5092257;28;20043;-86
2022/02/12 04:33:08;;;;;;;12.52;7.32;;;2.00;78.80;;;;;;5092328;28;20059;-86
2022/02/12 04:35:35;;;;;;;13.30;6.93;;;2.00;78.80;;;;;;5110158;28;20431;-85
2022/02/12 04:38:03;;;;;;;11.82;7.28;;;2.00;78.80;;;;;;5112485;28;20118;-87
2022/02/12 04:40:31;;;;;;;11.27;7.25;;;2.00;78.80;;;;;;5113670;28;20044;-87
2022/02/12 04:42:58;;;;;;;14.52;7.35;;;1.90;78.80;;;;;;5113883;28;20463;-87
2022/02/12 04:45:25;;;;;;;12.10;7.40;;;2.00;78.80;;;;;;5112452;28;20055;-87
2022/02/12 04:47:53;;;;;;;12.07;7.00;;;1.90;78.80;;;;;;5114016;28;20126;-88
2022/02/12 04:50:20;;;;;;;12.88;7.20;;;1.90;78.90;;;;;;5096647;28;20513;-87
2022/02/12 04:52:47;;;;;;;10.45;6.53;;;1.90;78.90;;;;;;5115168;28;20047;-87
2022/02/12 04:55:14;;;;;;;12.18;7.07;;;1.90;78.90;;;;;;5113385;28;20047;-86
2022/02/12 04:57:41;;;;;;;13.27;7.38;;;1.90;78.90;;;;;;5113722;28;20058;-86
2022/02/12 05:00:08;;;;;;;13.80;6.97;;;1.90;78.80;;;;;;5113643;28;20054;-86
2022/02/12 05:02:35;;;;;;;15.48;7.75;;;1.90;78.90;;;;;;5113591;28;20055;-86
2022/02/12 05:05:03;;;;;;;13.40;7.25;;;1.90;78.90;;;;;;5115728;28;20063;-86
2022/02/12 05:07:30;;;;;;;13.05;7.07;;;1.90;78.90;;;;;;5112931;28;20047;-86
2022/02/12 05:09:57;;;;;;;12.10;7.07;;;1.90;78.90;;;;;;5113584;28;20108;-87
2022/02/12 05:12:24;;;;;;;14.00;7.03;;;1.80;78.90;;;;;;5113471;28;20047;-86
2022/02/12 05:14:52;;;;;;;12.05;7.18;;;1.90;78.80;;;;;;5095267;28;20512;-86
2022/02/12 05:17:19;;;;;;;12.05;7.50;;;1.80;78.80;;;;;;5114575;28;20047;-86
2022/02/12 05:19:46;;;;;;;11.20;7.60;;;1.70;78.80;;;;;;5114562;28;20048;-86
2022/02/12 05:22:17;;;;;;;12.10;7.25;;;1.70;78.80;;;;;;5112923;28;20116;-86
2022/02/12 05:24:45;;;;;;;11.00;7.43;;;1.70;78.80;;;;;;5111703;28;20093;-86
2022/02/12 05:27:12;;;;;;;12.57;6.70;;;1.70;78.80;;;;;;5113178;28;20062;-87
2022/02/12 05:29:42;;;;;;;11.43;7.10;;;1.70;78.80;;;;;;5097474;28;20125;-86
2022/02/12 05:32:09;;;;;;;11.98;7.25;;;1.70;78.80;;;;;;5110899;28;20044;-87
2022/02/12 05:34:36;;;;;;;13.15;7.35;;;1.70;78.80;;;;;;5113135;28;20063;-86
2022/02/12 05:37:03;;;;;;;13.77;7.35;;;1.70;78.80;;;;;;5112731;28;20513;-86
2022/02/12 05:39:30;;;;;;;11.25;7.32;;;1.70;78.80;;;;;;5113022;28;20546;-86
2022/02/12 05:41:57;;;;;;;12.02;7.90;;;1.70;78.80;;;;;;5112884;28;20039;-86
2022/02/12 05:44:25;;;;;;;14.20;7.88;;;1.60;78.70;;;;;;5113253;28;20059;-86
2022/02/12 05:46:52;;;;;;;14.55;7.90;;;1.60;78.70;;;;;;5112748;28;20416;-86
2022/02/12 05:49:19;;;;;;;14.02;6.95;;;1.60;78.70;;;;;;5112081;28;20056;-86
2022/02/12 05:51:46;;;;;;;13.57;8.38;;;1.60;78.70;;;;;;5112266;28;20050;-86
2022/02/12 05:54:13;;;;;;;11.77;7.88;;;1.60;78.70;;;;;;5112631;28;20052;-87
2022/02/12 05:56:40;;;;;;;13.65;7.68;;;1.50;78.70;;;;;;5078504;28;20040;-86
2022/02/12 05:59:12;;;;;;;15.43;7.43;;;1.50;78.70;;;;;;5114956;28;20078;-87
2022/02/12 06:01:40;;;;;;;12.13;7.50;;;1.50;78.70;;;;;;5110200;28;20074;-87
2022/02/12 06:04:07;;;;;;;14.18;8.15;;;1.50;78.70;;;;;;5110856;28;20047;-88
2022/02/12 06:06:34;;;;;;;14.00;8.13;;;1.50;78.70;;;;;;5111926;27;20039;-88
2022/02/12 06:09:01;;;;;;;12.75;8.55;;;1.40;78.70;;;;;;5109928;28;20051;-88
2022/02/12 06:11:29;;;;;;;12.43;7.95;;;1.40;78.70;;;;;;5112025;28;20040;-87
2022/02/12 06:13:55;;;;;;;12.90;8.20;;;1.40;78.70;;;;;;5114118;28;20055;-87
2022/02/12 06:16:23;;;;;;;16.80;8.52;;;1.40;78.70;;;;;;5111689;28;20067;-87
2022/02/12 06:18:50;;;;;;;16.98;8.40;;;1.40;78.80;;;;;;5111816;28;20467;-87
2022/02/12 06:21:17;;;;;;;13.93;8.50;;;1.40;78.80;;;;;;5093401;28;20040;-87
2022/02/12 06:23:44;;;;;;;15.05;8.23;;;1.40;78.80;;;;;;5127141;27;20501;-87
2022/02/12 06:26:11;;;;;;;13.27;8.77;;;1.40;78.80;;;;;;5113862;28;20536;-87
2022/02/12 06:28:38;;;;;;;13.70;8.30;;;1.40;78.80;;;;;;5111865;28;20051;-87
2022/02/12 06:31:05;;;;;;;12.88;8.43;;;1.30;78.80;;;;;;5111193;28;20058;-87
2022/02/12 06:33:32;;;;;;;14.55;8.20;;;1.40;78.80;;;;;;5111450;28;20133;-87
2022/02/12 06:35:59;;;;;;;12.40;7.80;;;1.30;78.80;;;;;;5093177;28;20035;-86
2022/02/12 06:38:27;;;;;;;11.90;8.40;;;1.30;78.70;;;;;;5111259;28;20104;-87
2022/02/12 06:40:54;;;;;;;13.10;7.68;;;1.30;78.70;;;;;;5111624;28;20066;-87
2022/02/12 06:43:21;;;;;;;14.32;8.20;;;1.30;78.70;;;;;;5093568;28;20062;-87
2022/02/12 06:45:49;;;;;;;13.02;7.72;;;1.20;78.70;;;;;;5093039;28;20066;-86
2022/02/12 06:48:18;;;;;;;15.40;8.48;;;1.20;78.70;;;;;;5111007;28;20044;-87
2022/02/12 06:50:46;;;;;;;13.32;9.02;;;1.20;78.70;;;;;;5092099;28;20048;-87
2022/02/12 06:53:13;;;;;;;15.50;9.30;;;1.20;78.70;;;;;;5103516;28;20059;-86
2022/02/12 06:55:40;;;;;;;17.98;9.30;;;1.20;78.60;;;;;;5092329;28;20063;-88
2022/02/12 06:58:07;;;;;;;15.07;8.35;;;1.20;78.70;;;;;;5079120;28;20040;-90
2022/02/12 07:00:34;;;;;;;18.42;9.00;;;1.20;78.70;;;;;;5099002;28;20044;-89
2022/02/12 07:03:01;;;;;;;14.48;8.45;;;1.10;78.70;;;;;;5108811;28;20051;-89
2022/02/12 07:05:28;;;;;;;15.75;8.38;;;1.20;78.70;;;;;;5094125;28;20054;-88
2022/02/12 07:07:56;;;;;;;19.02;9.02;;;1.10;78.70;;;;;;5096909;28;20052;-88
2022/02/12 07:10:24;;;;;;;18.25;8.98;;;1.10;78.70;;;;;;5091501;28;20424;-88
2022/02/12 07:12:51;;;;;;;16.98;8.60;;;1.10;78.70;;;;;;5085655;28;20040;-87
2022/02/12 07:15:18;;;;;;;17.38;9.00;;;1.10;78.60;;;;;;5096973;28;20058;-88
2022/02/12 07:17:45;;;;;;;19.17;9.65;;;1.10;78.70;;;;;;5092647;28;20043;-88
2022/02/12 07:20:13;;;;;;;14.55;9.70;;;1.10;78.70;;;;;;5096248;28;20048;-89
2022/02/12 07:22:41;;;;;;;17.33;9.40;;;1.00;78.70;;;;;;5094201;28;20053;-89
2022/02/12 07:25:12;;;;;;;13.60;9.05;;;1.00;78.60;;;;;;5100653;28;20072;-89
2022/02/12 07:27:40;;;;;;;15.20;9.35;;;1.00;78.70;;;;;;5096954;28;20056;-89
2022/02/12 07:30:12;;;;;;;14.93;9.85;;;1.00;78.70;;;;;;5078448;28;20089;-87
2022/02/12 07:32:41;;;;;;;13.45;9.68;;;1.00;78.70;;;;;;5093358;28;20063;-89
2022/02/12 07:35:13;;;;;;;14.32;9.32;;;0.90;78.60;;;;;;5091137;28;20505;-90
2022/02/12 07:37:48;;;;;;;14.05;9.98;;;1.00;78.70;;;;;;5093714;28;20047;-89
2022/02/12 07:40:17;;;;;;;15.50;9.95;;;1.00;78.70;;;;;;5099488;28;20062;-89
2022/02/12 07:42:46;;;;;;;16.67;9.90;;;0.90;78.70;;;;;;5082290;28;20043;-89
2022/02/12 07:45:14;;;;;;;21.15;10.50;;;0.90;78.70;;;;;;5093706;28;20143;-90
2022/02/12 07:47:41;;;;;;;16.27;10.60;;;0.90;78.70;;;;;;5092474;28;20051;-89
2022/02/12 07:50:11;;;;;;;17.65;10.45;;;0.90;78.80;;;;;;5107945;28;20063;-89
2022/02/12 07:52:39;;;;;;;16.38;10.75;;;0.90;78.80;;;;;;5078651;28;20413;-89
2022/02/12 07:55:06;;;;;;;16.77;10.80;;;0.90;78.80;;;;;;5079193;28;20044;-90
2022/02/12 07:57:33;;;;;;;18.17;11.27;;;0.90;78.90;;;;;;5091077;28;20052;-88
2022/02/12 08:00:00;;;;;;;17.17;10.23;;;0.90;78.90;;;;;;5090995;28;20043;-88
2022/02/12 08:02:27;;;;;;;17.80;11.02;;;0.90;78.90;;;;;;5108073;28;20536;-89
2022/02/12 08:04:54;;;;;;;17.60;11.30;;;0.90;78.90;;;;;;5123611;28;20524;-88
2022/02/12 08:07:28;;;;;;;16.63;11.27;;;0.90;79.00;;;;;;5104875;28;20055;-87
2022/02/12 08:10:02;;;;;;;15.48;11.35;;;0.90;79.00;;;;;;5105397;28;20040;-88
2022/02/12 08:12:28;;;;;;;18.13;11.38;;;0.90;79.10;;;;;;5106620;28;20069;-87
2022/02/12 08:14:57;;;;;;;17.48;11.30;;;0.90;79.10;;;;;;5112181;28;20043;-88
2022/02/12 08:17:25;;;;;;;15.27;10.60;;;0.90;79.20;;;;;;5111909;28;20059;-88
2022/02/12 08:19:52;;;;;;;20.35;10.90;;;0.90;79.20;;;;;;5082275;28;20048;-88
2022/02/12 08:22:20;;;;;;;18.33;10.75;;;0.90;79.20;;;;;;5100588;28;20055;-87
2022/02/12 08:24:48;;;;;;;17.35;11.00;;;0.90;79.30;;;;;;5088929;28;20395;-87
2022/02/12 08:27:15;;;;;;;22.52;11.55;;;0.90;79.40;;;;;;5094303;28;20105;-86
2022/02/12 08:29:44;;;;;;;19.15;10.60;;;0.90;79.40;;;;;;5079938;28;20466;-86
2022/02/12 08:32:12;;;;;;;21.27;11.05;;;1.00;79.50;;;;;;5111733;28;20123;-86
2022/02/12 08:34:42;;;;;;;17.08;10.43;;;1.00;79.60;;;;;;5096341;28;20410;-90
2022/02/12 08:37:11;;;;;;;20.83;9.73;;;1.00;79.70;;;;;;5113518;28;20044;-90
2022/02/12 08:39:46;;;;;;;19.70;10.93;;;1.10;79.80;;;;;;5095271;28;20051;-86
2022/02/12 08:42:13;;;;;;;18.08;9.23;;;1.10;79.90;;;;;;5113604;28;20070;-85
2022/02/12 08:44:40;;;;;;;20.80;9.95;;;1.10;80.00;;;;;;5113483;28;20064;-84
2022/02/12 08:47:11;;;;;;;22.38;9.73;;;1.20;80.10;;;;;;5115407;28;20051;-85
2022/02/12 08:49:41;;;;;;;19.05;9.20;;;1.20;80.20;;;;;;5111080;28;20063;-84
2022/02/12 08:52:10;;;;;;;17.20;8.88;;;1.30;80.30;;;;;;5095472;28;20040;-84
2022/02/12 08:54:37;;;;;;;17.45;9.23;;;1.30;80.40;;;;;;5113483;28;20050;-84
2022/02/12 08:57:05;;;;;;;15.25;8.82;;;1.40;80.50;;;;;;5113361;28;20039;-84
2022/02/12 08:59:32;;;;;;;17.30;8.93;;;1.40;80.60;;;;;;5112521;28;20463;-83
2022/02/12 09:02:07;;;;;;;16.77;9.13;;;1.50;80.60;;;;;;5115220;28;20565;-83
2022/02/12 09:04:34;;;;;;;18.95;8.93;;;1.50;80.70;;;;;;5113251;28;20062;-83
2022/02/12 09:07:02;;;;;;;21.17;9.18;;;1.60;80.80;;;;;;5112814;28;20427;-84
2022/02/12 09:09:29;;;;;;;16.80;8.40;;;1.60;80.80;;;;;;5112946;28;20048;-83
2022/02/12 09:11:57;;;;;;;17.92;8.88;;;1.70;80.90;;;;;;5113279;28;20043;-84
2022/02/12 09:14:25;;;;;;;18.35;8.45;;;1.80;80.90;;;;;;5112876;28;20058;-83
2022/02/12 09:16:52;;;;;;;14.27;7.78;;;1.80;80.90;;;;;;5114795;28;20048;-84
2022/02/12 09:19:22;;;;;;;16.63;8.57;;;1.90;81.00;;;;;;5111420;28;20463;-84
2022/02/12 09:21:49;;;;;;;19.00;9.30;;;1.90;81.10;;;;;;5112424;28;20039;-83
2022/02/12 09:24:16;;;;;;;22.92;10.88;;;2.00;81.10;;;;;;5111971;28;20567;-84
2022/02/12 09:26:43;;;;;;;14.85;8.95;;;2.00;81.10;;;;;;5112893;28;20412;-84
2022/02/12 09:29:10;;;;;;;21.88;8.60;;;2.10;81.20;;;;;;5109701;28;20040;-85
2022/02/12 09:31:37;;;;;;;18.95;8.82;;;2.20;81.20;;;;;;5111100;28;20048;-85
2022/02/12 09:34:06;;;;;;;16.50;8.50;;;2.30;81.20;;;;;;5112521;28;20043;-86
2022/02/12 09:36:33;;;;;;;17.65;8.15;;;2.30;81.20;;;;;;5112376;28;20051;-86
2022/02/12 09:39:01;;;;;;;18.92;9.00;;;2.40;81.20;;;;;;5112603;28;20047;-85
2022/02/12 09:41:28;;;;;;;16.80;8.20;;;2.40;81.20;;;;;;5113109;28;20051;-86
2022/02/12 09:43:56;;;;;;;16.35;8.32;;;2.50;81.20;;;;;;5114470;28;20048;-85
2022/02/12 09:46:42;;;;;;;12.52;8.27;;;2.50;81.20;;;;;;5112645;28;20059;-85
2022/02/12 09:49:09;;;;;;;18.83;8.82;;;2.70;81.20;;;;;;5112454;28;20055;-85
2022/02/12 09:51:40;;;;;;;18.40;7.82;;;2.80;81.30;;;;;;5112680;28;20089;-84
2022/02/12 09:54:08;;;;;;;18.27;8.32;;;2.80;81.20;;;;;;5112673;28;20044;-84
2022/02/12 09:56:40;;;;;;;13.27;7.78;;;2.90;81.20;;;;;;5111882;28;20087;-84
2022/02/12 09:59:07;;;;;;;15.50;7.63;;;3.00;81.10;;;;;;5114067;28;20062;-84
2022/02/12 10:01:38;;;;;;;18.10;7.13;;;3.10;81.10;;;;;;5112405;28;20058;-84
2022/02/12 10:04:17;;;;;;;17.45;7.20;;;3.30;81.00;;;;;;5112416;28;20051;-85
2022/02/12 10:06:45;;;;;;;16.77;7.18;;;3.40;80.80;;;;;;5112323;28;20047;-85
2022/02/12 10:09:13;;;;;;;18.00;7.38;;;3.50;80.60;;;;;;5112350;28;20044;-85
2022/02/12 10:11:51;;;;;;;13.35;6.13;;;3.70;80.50;;;;;;5112433;28;20513;-85
2022/02/12 10:14:22;;;;;;;18.25;6.90;;;3.80;80.20;;;;;;5110580;28;20529;-84
2022/02/12 10:16:53;;;;;;;15.23;6.55;;;4.00;80.00;;;;;;5113812;28;20055;-83
2022/02/12 10:19:33;;;;;;;17.08;6.28;;;4.20;79.80;;;;;;5094135;28;20445;-84
2022/02/12 10:22:13;;;;;;;15.05;5.72;;;4.30;79.50;;;;;;5112041;28;20042;-84
2022/02/12 10:24:55;;;;;;;16.35;5.10;;;4.50;79.10;;;;;;5111912;28;20056;-84
2022/02/12 10:27:25;;;;;;;15.18;5.57;;;4.70;78.70;;;;;;5111656;28;20044;-84
2022/02/12 10:29:58;;;;;;;16.05;5.00;;;4.90;78.30;;;;;;5093982;28;20520;-84
2022/02/12 10:32:26;;;;;;;10.55;5.13;;;5.00;77.90;;;;;;5112204;28;20689;-84
2022/02/12 10:34:56;;;;;;;11.73;4.82;;;5.20;77.50;;;;;;5111773;28;20048;-84
2022/02/12 10:37:24;;;;;;;17.05;5.45;;;5.40;77.00;;;;;;5092173;28;20058;-84
2022/02/12 10:40:02;;;;;;;11.13;5.05;;;5.50;76.50;;;;;;5111866;28;20044;-84
2022/02/12 10:42:31;;;;;;;12.85;5.55;;;5.70;76.00;;;;;;5093421;28;20050;-84
2022/02/12 10:45:08;;;;;;;13.50;4.72;;;5.90;75.50;;;;;;5111701;28;20048;-84
2022/02/12 10:47:36;;;;;;;15.88;5.07;;;6.00;74.90;;;;;;5111729;28;20044;-84
2022/02/12 10:50:03;;;;;;;17.60;5.10;;;6.10;74.40;;;;;;5113398;28;20429;-85
2022/02/12 10:53:02;;;;;;;18.98;5.22;;;6.20;73.90;;;;;;5111419;28;20047;-85
2022/02/12 10:55:38;;;;;;;13.05;5.05;;;6.30;73.40;;;;;;5077716;28;20044;-85
2022/02/12 10:58:06;;;;;;;12.90;5.10;;;6.40;73.00;;;;;;5111252;28;20058;-84
2022/02/12 11:00:36;;;;;;;16.02;5.38;;;6.50;72.70;;;;;;5111243;28;20112;-85
2022/02/12 11:03:09;;;;;;;15.30;5.20;;;6.60;72.50;;;;;;5111343;28;20513;-84
2022/02/12 11:05:41;;;;;;;16.45;5.95;;;6.70;72.30;;;;;;5111248;28;20047;-84
2022/02/12 11:08:10;;;;;;;18.42;5.55;;;6.80;72.10;;;;;;5113359;28;20048;-84
2022/02/12 11:10:38;;;;;;;12.32;5.05;;;6.90;71.80;;;;;;5110844;28;20447;-84
2022/02/12 11:13:07;;;;;;;15.13;5.53;;;7.00;71.50;;;;;;5111014;28;20047;-84
2022/02/12 11:15:35;;;;;;;18.02;6.30;;;7.00;71.10;;;;;;5109595;28;20100;-84
2022/02/12 11:18:12;;;;;;;15.50;4.97;;;7.10;70.70;;;;;;5093919;28;20047;-84
2022/02/12 11:20:42;;;;;;;15.18;6.10;;;7.10;70.40;;;;;;5111028;28;20051;-83
2022/02/12 11:23:21;;;;;;;13.50;5.75;;;7.20;70.10;;;;;;5108915;28;20427;-84
2022/02/12 11:25:49;;;;;;;11.35;5.28;;;7.20;69.90;;;;;;5111838;28;20124;-84
2022/02/12 11:28:20;;;;;;;14.30;5.95;;;7.20;69.80;;;;;;5092895;28;20048;-84
2022/02/12 11:30:46;;;;;;;18.08;6.07;;;7.20;69.80;;;;;;5110635;28;20043;-83
2022/02/12 11:33:20;;;;;;;14.80;5.32;;;7.20;69.80;;;;;;5110915;28;20059;-84
2022/02/12 11:36:12;;;;;;;15.77;6.03;;;7.20;69.60;;;;;;5095730;28;20043;-84
2022/02/12 11:38:41;;;;;;;16.52;5.90;;;7.30;69.30;;;;;;5110792;28;20047;-84
2022/02/12 11:41:27;;;;;;;15.40;6.30;;;7.20;69.10;;;;;;5112597;28;20630;-84
2022/02/12 11:43:55;;;;;;;17.05;6.72;;;7.20;69.10;;;;;;5110915;28;20104;-84
2022/02/12 11:46:41;;;;;;;15.40;6.90;;;7.20;69.10;;;;;;5121747;27;20048;-84
2022/02/12 11:49:34;;;;;;;15.85;6.28;;;7.20;68.90;;;;;;5110304;28;20055;-83
2022/02/12 11:52:24;;;;;;;15.77;6.03;;;7.20;68.80;;;;;;5110637;28;20051;-84
2022/02/12 11:54:57;;;;;;;17.38;6.30;;;7.20;68.70;;;;;;5107468;28;20051;-84
2022/02/12 11:57:27;;;;;;;14.68;6.30;;;7.20;68.70;;;;;;5110516;28;20134;-83
2022/02/12 11:59:57;;;;;;;14.65;5.80;;;7.20;68.90;;;;;;5110576;28;20050;-84
2022/02/12 12:02:41;;;;;;;12.70;5.57;;;7.20;69.00;;;;;;5111110;28;20108;-83
2022/02/12 12:05:26;;;;;;;13.55;4.57;;;7.20;69.00;;;;;;5112583;28;20047;-84
2022/02/12 12:07:59;;;;;;;18.33;5.07;;;7.20;69.00;;;;;;5112235;28;20046;-82
2022/02/12 12:10:28;;;;;;;16.13;5.23;;;7.20;68.80;;;;;;5092213;28;20056;-84
2022/02/12 12:13:00;;;;;;;16.80;4.80;;;7.20;68.70;;;;;;5110305;28;20055;-84
2022/02/12 12:15:27;;;;;;;15.35;4.32;;;7.20;68.50;;;;;;5110205;28;20546;-83
2022/02/12 12:17:55;;;;;;;10.38;4.40;;;7.20;68.40;;;;;;5110380;28;20039;-83
2022/02/12 12:20:32;;;;;;;10.82;4.10;;;7.20;68.10;;;;;;5111088;28;20459;-83
2022/02/12 12:23:08;;;;;;;11.93;4.10;;;7.20;67.80;;;;;;5110780;28;20043;-84
2022/02/12 12:26:01;;;;;;;12.13;3.85;;;7.30;67.60;;;;;;5110342;28;20052;-84
2022/02/12 12:28:40;;;;;;;13.15;3.70;;;7.30;67.30;;;;;;5100162;28;20074;-84
2022/02/12 12:31:11;;;;;;;11.68;4.07;;;7.30;67.10;;;;;;5110003;28;20043;-84
2022/02/12 12:33:42;;;;;;;9.90;3.60;;;7.30;66.80;;;;;;5108845;28;20055;-83
2022/02/12 12:36:13;;;;;;;11.25;4.13;;;7.30;66.80;;;;;;5110295;28;20090;-83
2022/02/12 12:38:41;;;;;;;13.48;3.95;;;7.30;66.80;;;;;;5109908;28;20040;-85
2022/02/12 12:41:24;;;;;;;11.85;3.83;;;7.30;66.80;;;;;;5112200;28;20574;-84
2022/02/12 12:44:06;;;;;;;13.88;3.85;;;7.40;66.80;;;;;;5111861;28;20467;-83
2022/02/12 12:46:34;;;;;;;12.45;3.58;;;7.40;66.80;;;;;;5109956;28;20048;-84
2022/02/12 12:49:01;;;;;;;14.77;4.10;;;7.40;66.70;;;;;;5109891;28;20061;-83
2022/02/12 12:51:28;;;;;;;12.95;3.67;;;7.40;66.60;;;;;;5109518;28;20390;-84
2022/02/12 12:53:55;;;;;;;12.48;3.90;;;7.40;66.50;;;;;;5110178;28;20040;-84
2022/02/12 12:56:26;;;;;;;10.98;3.63;;;7.40;66.50;;;;;;5110852;28;20451;-83
2022/02/12 12:59:09;;;;;;;9.55;3.72;;;7.50;66.60;;;;;;5110003;28;20112;-85
2022/02/12 13:02:02;;;;;;;11.13;4.00;;;7.50;66.60;;;;;;5114121;28;20049;-83